In Rescue
 
Open Full Screen Window  High Contrast Mode
Wind Gusting 18 knots
12
May 27, 2024 3:44 PM EDT
Weather Information
Wind Direction
  280 °
Wind Speed
  12 kt (14 mph)
Wind Gust
  18 kt (21 mph)
Altimeter
29.70 in
Visibility
10 SM
Temperature
15° C
59° F
Dewpoint
13° C
55° F
Humidity
88%
Sky Condition
Overcast @ 1,900 ft
Broken @ 1,400 ft
MVFR

METAR KIRS 271944Z AUTO 28012G18KT 10SM BKN014 OVC019 15/13 A2970 RMK AO2 T01510125

FAA Disclaimer: The data displayed is for advisory purposes only and is not to be used for flight planning or operations.